createdAt,value
2019-05-21T00:02:07.176Z,39.77
2019-05-21T00:07:11.450Z,35.80
2019-05-21T00:12:15.533Z,38.10
2019-05-21T00:17:19.470Z,34.47
2019-05-21T00:22:24.007Z,37.17
2019-05-21T00:27:28.554Z,36.40
2019-05-21T00:33:08.826Z,37.60
2019-05-21T00:38:51.792Z,30.47
2019-05-21T00:43:58.221Z,34.03
2019-05-21T00:49:02.294Z,34.37
2019-05-21T00:54:06.167Z,40.07
2019-05-21T00:59:10.164Z,31.83
2019-05-21T01:04:14.038Z,33.80
2019-05-21T01:09:18.291Z,34.27
2019-05-21T01:14:22.236Z,34.60
2019-05-21T01:19:28.371Z,35.10
2019-05-21T01:24:32.735Z,27.20
2019-05-21T01:29:37.112Z,35.00
2019-05-21T01:34:41.079Z,30.20
2019-05-21T01:39:45.786Z,28.70
2019-05-21T01:44:49.759Z,26.00
2019-05-21T01:49:54.310Z,25.03
2019-05-21T01:54:58.274Z,25.40
2019-05-21T02:00:02.313Z,25.83
2019-05-21T02:05:06.369Z,26.37
2019-05-21T02:10:10.692Z,33.37
2019-05-21T02:15:14.926Z,24.67
2019-05-21T02:20:18.958Z,25.73
2019-05-21T02:25:23.602Z,24.07
2019-05-21T02:30:27.980Z,28.10
2019-05-21T02:35:32.316Z,27.17
2019-05-21T02:40:36.648Z,25.13
2019-05-21T02:45:40.997Z,20.47
2019-05-21T02:50:44.997Z,25.17
2019-05-21T02:55:50.680Z,22.43
2019-05-21T03:01:17.481Z,21.67
2019-05-21T03:06:20.032Z,22.50
2019-05-21T03:11:23.984Z,19.40
2019-05-21T03:16:28.809Z,22.30
2019-05-21T03:21:32.824Z,21.30
2019-05-21T03:26:37.029Z,23.50
2019-05-21T03:31:41.343Z,19.43
2019-05-21T03:36:45.960Z,20.83
2019-05-21T03:41:50.611Z,21.10
2019-05-21T03:46:55.690Z,23.80
2019-05-21T03:51:59.590Z,23.73
2019-05-21T03:57:03.623Z,26.30
2019-05-21T04:02:08.004Z,21.23
2019-05-21T04:07:12.686Z,22.63
2019-05-21T04:12:16.652Z,26.97
2019-05-21T04:17:43.030Z,25.80
2019-05-21T04:22:52.946Z,27.00
2019-05-21T04:27:57.367Z,28.93
2019-05-21T04:33:02.003Z,28.87
2019-05-21T04:38:06.656Z,23.50
2019-05-21T04:43:10.915Z,25.97
2019-05-21T04:48:15.076Z,29.80
2019-05-21T04:53:20.279Z,25.40
2019-05-21T04:58:24.620Z,20.60
2019-05-21T05:03:28.847Z,22.35
2019-05-21T05:08:33.081Z,20.23
2019-05-21T05:13:37.338Z,25.60
2019-05-21T05:18:42.064Z,23.97
2019-05-21T05:23:46.913Z,19.60
2019-05-21T05:28:51.146Z,24.90
2019-05-21T05:33:55.415Z,24.63
2019-05-21T05:38:59.385Z,25.17
2019-05-21T05:44:03.427Z,26.43
2019-05-21T05:49:16.778Z,30.20
2019-05-21T05:54:21.168Z,26.47
2019-05-21T05:59:25.772Z,30.57
2019-05-21T06:04:30.813Z,32.27
2019-05-21T06:09:34.858Z,33.17
2019-05-21T06:14:39.067Z,32.50
2019-05-21T06:19:43.029Z,30.30
2019-05-21T06:24:47.338Z,30.73
2019-05-21T06:29:52.008Z,32.50
2019-05-21T06:34:56.034Z,29.73
2019-05-21T06:40:00.078Z,34.00
2019-05-21T06:45:05.229Z,29.17
2019-05-21T06:50:09.832Z,33.33
2019-05-21T06:55:13.807Z,30.40
2019-05-21T07:00:18.082Z,32.17
2019-05-21T07:05:22.433Z,36.00
2019-05-21T07:10:26.399Z,33.90
2019-05-21T07:15:30.664Z,31.53
2019-05-21T07:20:35.238Z,34.97
2019-05-21T07:25:39.775Z,27.23
2019-05-21T07:30:43.825Z,30.47
2019-05-21T07:35:47.875Z,35.27
2019-05-21T07:40:51.908Z,31.40
2019-05-21T07:45:56.246Z,38.67
2019-05-21T07:51:00.289Z,33.73
2019-05-21T07:56:04.333Z,28.03
2019-05-21T08:01:08.301Z,29.47
2019-05-21T08:06:14.962Z,27.53
2019-05-21T08:11:18.289Z,26.50
2019-05-21T08:16:22.623Z,30.40
2019-05-21T08:21:27.131Z,24.60
2019-05-21T08:26:31.164Z,25.63
2019-05-21T08:31:35.459Z,25.17
2019-05-21T08:36:40.400Z,26.20
2019-05-21T08:41:44.717Z,26.80
2019-05-21T08:46:49.216Z,23.83
2019-05-21T08:51:53.469Z,23.53
2019-05-21T08:56:57.722Z,23.47
2019-05-21T09:02:02.887Z,20.53
2019-05-21T09:07:06.912Z,23.70
2019-05-21T09:12:11.242Z,22.60
2019-05-21T09:17:15.564Z,21.47
2019-05-21T09:22:19.591Z,21.03
2019-05-21T09:27:23.944Z,22.73
2019-05-21T09:32:28.207Z,18.90
2019-05-21T09:37:32.949Z,21.33
2019-05-21T09:42:36.947Z,16.90
2019-05-21T09:47:41.320Z,40.97
2019-05-21T09:52:45.652Z,22.43
2019-05-21T09:58:02.480Z,20.53
2019-05-21T10:03:09.845Z,19.30
2019-05-21T10:08:13.879Z,14.97
2019-05-21T10:13:17.831Z,18.80
2019-05-21T10:18:21.880Z,19.67
2019-05-21T10:23:25.913Z,16.53
2019-05-21T10:28:30.421Z,19.17
2019-05-21T10:33:34.756Z,18.10
2019-05-21T10:38:38.783Z,20.63
2019-05-21T10:43:42.778Z,21.20
2019-05-21T10:48:46.827Z,15.00
2019-05-21T10:53:50.864Z,15.37
2019-05-21T10:58:55.242Z,19.50
2019-05-21T11:04:13.387Z,16.07
2019-05-21T11:09:20.055Z,16.20
2019-05-21T11:14:24.127Z,16.07
2019-05-21T11:19:28.159Z,19.93
2019-05-21T11:24:32.441Z,14.70
2019-05-21T11:29:37.120Z,17.70
2019-05-21T11:34:41.170Z,19.27
2019-05-21T11:39:45.198Z,19.83
2019-05-21T11:44:49.159Z,17.07
2019-05-21T11:49:53.474Z,20.33
2019-05-21T11:54:57.951Z,20.70
2019-05-21T12:00:01.983Z,22.33
2019-05-21T12:05:07.027Z,17.00
2019-05-21T12:10:11.077Z,17.60
2019-05-21T12:15:16.220Z,16.40
2019-05-21T12:20:35.409Z,17.80
2019-05-21T12:25:26.519Z,23.73
2019-05-21T12:30:31.164Z,20.80
2019-05-21T12:35:35.246Z,20.57
2019-05-21T12:40:39.203Z,18.67
2019-05-21T12:45:43.551Z,19.10
2019-05-21T12:50:47.618Z,21.30
2019-05-21T12:55:52.094Z,21.53
2019-05-21T13:00:56.436Z,20.53
2019-05-21T13:06:00.527Z,17.90
2019-05-21T13:11:04.615Z,21.23
2019-05-21T13:16:09.175Z,24.73
2019-05-21T13:21:13.471Z,25.00
2019-05-21T13:26:17.739Z,22.20
2019-05-21T13:31:22.088Z,24.90
2019-05-21T13:36:26.138Z,20.30
2019-05-21T13:41:30.216Z,20.20
2019-05-21T13:46:35.711Z,21.10
2019-05-21T13:51:40.276Z,17.87
2019-05-21T13:56:44.549Z,21.30
2019-05-21T14:01:48.590Z,23.53
2019-05-21T14:06:52.653Z,24.83
2019-05-21T14:11:57.263Z,22.03
2019-05-21T14:17:01.603Z,24.27
2019-05-21T14:22:05.649Z,23.73
2019-05-21T14:27:10.073Z,15.65
2019-05-21T14:32:13.970Z,23.70
2019-05-21T14:37:18.327Z,23.90
2019-05-21T14:42:22.398Z,25.70
2019-05-21T14:47:26.876Z,22.83
2019-05-21T14:52:31.033Z,27.63
2019-05-21T14:57:35.731Z,25.87
2019-05-21T15:02:39.911Z,28.43
2019-05-21T15:07:49.481Z,26.80
2019-05-21T15:12:52.056Z,26.17
2019-05-21T15:17:56.196Z,26.97
2019-05-21T15:23:00.320Z,24.57
2019-05-21T15:28:04.348Z,28.17
2019-05-21T15:33:08.426Z,23.03
2019-05-21T15:38:12.859Z,26.47
2019-05-21T15:43:17.240Z,28.10
2019-05-21T15:48:26.092Z,36.07
2019-05-21T15:53:27.505Z,31.10
2019-05-21T15:58:31.558Z,29.23
2019-05-21T16:03:35.658Z,27.63
2019-05-21T16:08:39.982Z,35.20
2019-05-21T16:13:44.375Z,28.90
2019-05-21T16:18:49.043Z,25.73
2019-05-21T16:23:53.011Z,31.93
2019-05-21T16:28:57.077Z,40.93
2019-05-21T16:34:01.549Z,40.30
2019-05-21T16:39:07.645Z,38.00
2019-05-21T16:44:12.267Z,33.10
2019-05-21T16:49:16.738Z,26.23
2019-05-21T16:54:21.060Z,26.93
2019-05-21T16:59:25.488Z,24.73
2019-05-21T17:04:30.031Z,31.77
2019-05-21T17:09:34.067Z,26.50
2019-05-21T17:14:38.768Z,26.50
2019-05-21T17:19:43.255Z,32.70
2019-05-21T17:24:47.888Z,26.20
2019-05-21T17:29:51.863Z,29.80
2019-05-21T17:34:55.904Z,28.03
2019-05-21T17:40:00.263Z,30.10
2019-05-21T17:45:04.802Z,36.90
2019-05-21T17:50:09.812Z,33.10
2019-05-21T17:55:14.962Z,30.83
2019-05-21T18:00:22.575Z,31.23
2019-05-21T18:05:27.576Z,31.27
2019-05-21T18:10:31.542Z,31.60
2019-05-21T18:15:36.506Z,25.90
2019-05-21T18:20:40.883Z,29.50
2019-05-21T18:25:45.150Z,24.77
2019-05-21T18:30:49.459Z,27.27
2019-05-21T18:35:53.706Z,26.70
2019-05-21T18:40:57.744Z,31.23
2019-05-21T18:46:02.771Z,27.17
2019-05-21T18:51:07.111Z,24.63
2019-05-21T18:56:11.093Z,25.57
2019-05-21T19:01:15.603Z,29.50
2019-05-21T19:06:19.915Z,26.27
2019-05-21T19:11:24.067Z,23.77
2019-05-21T19:16:30.102Z,26.03
2019-05-21T19:21:33.871Z,27.60
2019-05-21T19:26:38.508Z,25.73
2019-05-21T19:31:42.736Z,28.60
2019-05-21T19:36:46.794Z,25.20
2019-05-21T19:41:51.116Z,23.67
2019-05-21T19:46:55.832Z,27.03
2019-05-21T19:52:00.719Z,26.27
2019-05-21T19:57:04.988Z,28.53
2019-05-21T20:02:09.959Z,28.67
2019-05-21T20:07:16.906Z,29.07
2019-05-21T20:12:22.216Z,28.23
2019-05-21T20:17:27.295Z,30.30
2019-05-21T20:22:32.222Z,30.60
2019-05-21T20:27:37.482Z,26.30
2019-05-21T20:32:42.914Z,32.27
2019-05-21T20:37:48.291Z,26.60
2019-05-21T20:42:52.350Z,33.23
2019-05-21T20:47:57.604Z,33.63
2019-05-21T20:53:02.975Z,32.23
2019-05-21T20:58:08.515Z,34.03
2019-05-21T21:03:13.577Z,28.30
2019-05-21T21:08:19.544Z,26.73
2019-05-21T21:13:23.669Z,32.87
2019-05-21T21:18:29.046Z,31.83
2019-05-21T21:23:34.685Z,27.40
2019-05-21T21:28:38.792Z,31.43
2019-05-21T21:33:43.458Z,29.30
2019-05-21T21:38:48.204Z,31.67
2019-05-21T21:43:53.171Z,32.50
2019-05-21T21:48:58.956Z,35.53
2019-05-21T21:54:03.957Z,33.13
2019-05-21T21:59:08.744Z,30.50
2019-05-21T22:04:15.858Z,30.67
2019-05-21T22:09:31.474Z,26.40
2019-05-21T22:14:49.521Z,32.90
2019-05-21T22:19:42.551Z,27.80
2019-05-21T22:24:46.564Z,27.07
2019-05-21T22:29:51.589Z,29.07
2019-05-21T22:34:55.611Z,25.40
2019-05-21T22:39:59.623Z,29.60
2019-05-21T22:45:08.488Z,28.30
2019-05-21T22:50:10.431Z,28.37
2019-05-21T22:55:14.772Z,24.87
2019-05-21T23:00:19.806Z,29.37
2019-05-21T23:05:23.939Z,31.83
2019-05-21T23:10:28.736Z,28.70
2019-05-21T23:15:33.615Z,23.33
2019-05-21T23:20:38.605Z,28.80
2019-05-21T23:25:44.652Z,25.43
2019-05-21T23:30:49.472Z,31.03
2019-05-21T23:35:54.467Z,28.97
2019-05-21T23:41:00.446Z,29.90
2019-05-21T23:46:05.719Z,26.23
2019-05-21T23:51:10.130Z,30.77
2019-05-21T23:56:15.291Z,29.77
